Time;durP1;ratioP1;P1;durP2;ratioP2;P2;SDS_P1;SDS_P2;PMS_P1;PMS_P2;Temp;Humidity;BMP_temperature;BMP_pressure;BME280_temperature;BME280_humidity;BME280_pressure;Samples;Min_cycle;Max_cycle;Signal;HPM_P1;HPM_P2
2023/10/21 00:01:06;;;;;;;;;;;;;;;;;;5030850;28;19913;-86
2023/10/21 00:03:35;;;;;;;;;;;;;;;;;;5014777;28;19917;-88
2023/10/21 00:06:00;;;;;;;;;;;;;;;;;;5013824;28;19952;-87
2023/10/21 00:08:25;;;;;;;;;;;;;;;;;;5017110;28;19939;-88
2023/10/21 00:10:52;;;;;;;;;;;;;;;;;;5017718;28;19932;-88
2023/10/21 00:13:17;;;;;;;;;;;;;;;;;;5012981;28;20017;-90
2023/10/21 00:15:44;;;;;;;;;;;;;;;;;;5029833;28;20011;-89
2023/10/21 00:18:09;;;;;;;;;;;;;;;;;;5011403;28;20338;-87
2023/10/21 00:20:37;;;;;;;;;;;;;;;;;;5041856;28;19913;-89
2023/10/21 00:23:02;;;;;;;;;;;;;;;;;;5018221;28;20456;-89
2023/10/21 00:25:28;;;;;;;;;;;;;;;;;;5015827;28;19914;-89
2023/10/21 00:27:56;;;;;;;;;;;;;;;;;;5016085;28;20431;-89
2023/10/21 00:30:22;;;;;;;;;;;;;;;;;;5033243;28;19995;-88
2023/10/21 00:33:00;;;;;;;;;;;;;;;;;;5009657;28;19920;-87
2023/10/21 00:35:25;;;;;;;;;;;;;;;;;;5029168;28;19921;-88
2023/10/21 00:37:50;;;;;;;;;;;;;;;;;;5027391;28;19924;-89
2023/10/21 00:40:16;;;;;;;;;;;;;;;;;;5029391;28;19913;-88
2023/10/21 00:42:41;;;;;;;;;;;;;;;;;;5035763;28;19971;-89
2023/10/21 00:45:07;;;;;;;;;;;;;;;;;;5008141;28;19917;-90
2023/10/21 00:47:34;;;;;;;;;;;;;;;;;;5034401;28;19957;-87
2023/10/21 00:50:00;;;;;;;;;;;;;;;;;;5016540;28;19920;-90
2023/10/21 00:52:25;;;;;;;;;;;;;;;;;;5027561;28;19917;-88
2023/10/21 00:54:51;;;;;;;;;;;;;;;;;;5038597;28;19981;-88
2023/10/21 00:57:16;;;;;;;;;;;;;;;;;;5016525;28;19913;-88
2023/10/21 00:59:43;;;;;;;;;;;;;;;;;;5015228;28;19993;-87
2023/10/21 01:02:08;;;;;;;;;;;;;;;;;;5026014;28;19913;-88
2023/10/21 01:04:35;;;;;;;;;;;;;;;;;;5008740;28;20198;-88
2023/10/21 01:07:01;;;;;;;;;;;;;;;;;;5031987;28;19952;-88
2023/10/21 01:09:30;;;;;;;;;;;;;;;;;;5011299;28;19987;-88
2023/10/21 01:12:01;;;;;;;;;;;;;;;;;;5014501;28;19939;-87
2023/10/21 01:14:26;;;;;;;;;;;;;;;;;;5029662;28;19924;-86
2023/10/21 01:16:52;;;;;;;;;;;;;;;;;;5033377;28;19918;-87
2023/10/21 01:19:20;;;;;;;;;;;;;;;;;;5014484;28;19925;-89
2023/10/21 01:21:47;;;;;;;;;;;;;;;;;;5023832;28;19928;-88
2023/10/21 01:24:15;;;;;;;;;;;;;;;;;;5045889;28;19920;-89
2023/10/21 01:26:42;;;;;;;;;;;;;;;;;;5017446;28;20028;-88
2023/10/21 01:29:59;;;;;;;;;;;;;;;;;;5019192;28;19924;-89
2023/10/21 01:32:33;;;;;;;;;;;;;;;;;;5019410;28;19912;-90
2023/10/21 01:34:58;;;;;;;;;;;;;;;;;;5024357;28;19924;-87
2023/10/21 01:37:24;;;;;;;;;;;;;;;;;;5026956;28;19909;-89
2023/10/21 01:39:49;;;;;;;;;;;;;;;;;;5009949;28;20071;-89
2023/10/21 01:42:14;;;;;;;;;;;;;;;;;;5014872;28;19913;-89
2023/10/21 01:44:43;;;;;;;;;;;;;;;;;;5027120;28;19932;-87
2023/10/21 01:47:08;;;;;;;;;;;;;;;;;;5007302;28;19898;-89
2023/10/21 01:49:33;;;;;;;;;;;;;;;;;;5014567;28;19917;-89
2023/10/21 01:52:00;;;;;;;;;;;;;;;;;;5015758;28;19909;-89
2023/10/21 01:54:27;;;;;;;;;;;;;;;;;;5019332;28;19913;-91
2023/10/21 01:56:53;;;;;;;;;;;;;;;;;;5034028;28;19939;-86
2023/10/21 01:59:18;;;;;;;;;;;;;;;;;;5009740;28;19944;-90
2023/10/21 02:01:47;;;;;;;;;;;;;;;;;;5019972;28;20282;-89
2023/10/21 02:04:12;;;;;;;;;;;;;;;;;;5008086;28;19996;-86
2023/10/21 02:06:38;;;;;;;;;;;;;;;;;;5017687;28;19977;-87
2023/10/21 02:09:03;;;;;;;;;;;;;;;;;;5015195;28;19917;-87
2023/10/21 02:11:29;;;;;;;;;;;;;;;;;;5009221;28;19929;-88
2023/10/21 02:13:56;;;;;;;;;;;;;;;;;;5017945;28;19916;-86
2023/10/21 02:16:21;;;;;;;;;;;;;;;;;;5006142;28;20371;-90
2023/10/21 02:18:50;;;;;;;;;;;;;;;;;;5011022;28;20039;-90
2023/10/21 02:21:15;;;;;;;;;;;;;;;;;;5035665;28;19927;-85
2023/10/21 02:23:40;;;;;;;;;;;;;;;;;;5008816;28;19917;-88
2023/10/21 02:26:09;;;;;;;;;;;;;;;;;;5045209;28;20219;-90
2023/10/21 02:28:34;;;;;;;;;;;;;;;;;;5001671;28;19917;-88
2023/10/21 02:31:04;;;;;;;;;;;;;;;;;;5013936;28;19993;-88
2023/10/21 02:33:29;;;;;;;;;;;;;;;;;;5017031;28;19913;-87
2023/10/21 02:35:56;;;;;;;;;;;;;;;;;;5025295;28;19921;-91
2023/10/21 02:38:21;;;;;;;;;;;;;;;;;;5017107;28;20362;-89
2023/10/21 02:40:46;;;;;;;;;;;;;;;;;;5009434;28;19924;-88
2023/10/21 02:43:24;;;;;;;;;;;;;;;;;;5009194;28;19929;-90
2023/10/21 02:45:49;;;;;;;;;;;;;;;;;;5013986;28;19928;-90
2023/10/21 02:48:16;;;;;;;;;;;;;;;;;;5014817;28;19917;-91
2023/10/21 02:50:42;;;;;;;;;;;;;;;;;;5013206;28;20365;-88
2023/10/21 02:53:09;;;;;;;;;;;;;;;;;;5024483;28;19924;-91
2023/10/21 02:55:36;;;;;;;;;;;;;;;;;;5027201;28;19947;-90
2023/10/21 02:58:02;;;;;;;;;;;;;;;;;;5022805;28;19996;-88
2023/10/21 03:00:31;;;;;;;;;;;;;;;;;;5025133;28;19928;-91
2023/10/21 03:02:59;;;;;;;;;;;;;;;;;;4998988;28;20242;-89
2023/10/21 03:05:25;;;;;;;;;;;;;;;;;;5000292;28;19952;-89
2023/10/21 03:07:50;;;;;;;;;;;;;;;;;;4995323;28;19964;-89
2023/10/21 03:10:18;;;;;;;;;;;;;;;;;;5014787;28;19932;-90
2023/10/21 03:12:43;;;;;;;;;;;;;;;;;;4997827;28;19980;-88
2023/10/21 03:15:10;;;;;;;;;;;;;;;;;;5016599;28;19957;-87
2023/10/21 03:17:38;;;;;;;;;;;;;;;;;;5016943;28;20000;-87
2023/10/21 03:20:14;;;;;;;;;;;;;;;;;;5020758;28;19920;-90
2023/10/21 03:22:43;;;;;;;;;;;;;;;;;;5048339;28;20198;-92
2023/10/21 03:25:09;;;;;;;;;;;;;;;;;;5007310;28;19993;-90
2023/10/21 03:30:57;;;;;;;;;;;;;;;;;;5042377;28;20003;-89
2023/10/21 03:33:26;;;;;;;;;;;;;;;;;;5005108;28;19913;-90
2023/10/21 03:35:52;;;;;;;;;;;;;;;;;;5029286;28;19932;-88
2023/10/21 03:38:17;;;;;;;;;;;;;;;;;;5021298;28;19968;-89
2023/10/21 03:40:43;;;;;;;;;;;;;;;;;;5004585;28;19925;-90
2023/10/21 03:43:11;;;;;;;;;;;;;;;;;;5018980;28;20279;-88
2023/10/21 03:45:39;;;;;;;;;;;;;;;;;;5010093;28;19913;-92
2023/10/21 03:48:06;;;;;;;;;;;;;;;;;;5048200;28;19996;-90
2023/10/21 03:50:32;;;;;;;;;;;;;;;;;;5045148;28;19909;-92
2023/10/21 03:52:58;;;;;;;;;;;;;;;;;;5008342;28;19924;-91
2023/10/21 03:55:27;;;;;;;;;;;;;;;;;;4996220;28;19927;-89
2023/10/21 03:58:04;;;;;;;;;;;;;;;;;;5014691;28;19913;-91
2023/10/21 04:00:30;;;;;;;;;;;;;;;;;;5022203;28;19936;-92
2023/10/21 04:02:55;;;;;;;;;;;;;;;;;;5018845;28;19940;-89
2023/10/21 04:05:24;;;;;;;;;;;;;;;;;;5016787;28;20015;-90
2023/10/21 04:07:50;;;;;;;;;;;;;;;;;;5016288;28;19945;-88
2023/10/21 04:10:19;;;;;;;;;;;;;;;;;;4997448;28;19974;-89
2023/10/21 04:12:46;;;;;;;;;;;;;;;;;;5022001;28;19917;-91
2023/10/21 04:15:16;;;;;;;;;;;;;;;;;;5022338;28;19992;-88
2023/10/21 04:17:45;;;;;;;;;;;;;;;;;;5006257;28;19967;-89
2023/10/21 04:20:10;;;;;;;;;;;;;;;;;;5025471;28;19924;-90
2023/10/21 04:22:36;;;;;;;;;;;;;;;;;;5004423;28;19913;-90
2023/10/21 04:25:01;;;;;;;;;;;;;;;;;;5001032;28;20778;-90
2023/10/21 04:27:27;;;;;;;;;;;;;;;;;;5023518;28;19919;-88
2023/10/21 04:29:52;;;;;;;;;;;;;;;;;;5005566;28;19917;-91
2023/10/21 04:32:19;;;;;;;;;;;;;;;;;;5017478;28;19959;-89
2023/10/21 04:34:47;;;;;;;;;;;;;;;;;;5008731;28;19917;-90
2023/10/21 04:37:14;;;;;;;;;;;;;;;;;;5026910;28;19933;-89
2023/10/21 04:39:39;;;;;;;;;;;;;;;;;;5005444;28;19980;-88
2023/10/21 04:42:08;;;;;;;;;;;;;;;;;;5007992;28;20291;-89
2023/10/21 04:47:51;;;;;;;;;;;;;;;;;;5042095;28;19928;-90
2023/10/21 04:50:30;;;;;;;;;;;;;;;;;;5011001;28;19917;-89
2023/10/21 04:53:02;;;;;;;;;;;;;;;;;;5028657;28;19917;-90
2023/10/21 04:55:27;;;;;;;;;;;;;;;;;;5024634;28;19976;-89
2023/10/21 04:57:53;;;;;;;;;;;;;;;;;;5000714;28;19976;-90
2023/10/21 05:00:18;;;;;;;;;;;;;;;;;;5010251;28;19910;-88
2023/10/21 05:02:43;;;;;;;;;;;;;;;;;;5019943;28;19912;-85
2023/10/21 05:05:09;;;;;;;;;;;;;;;;;;5041514;28;19927;-88
2023/10/21 05:07:49;;;;;;;;;;;;;;;;;;5024968;28;20020;-84
2023/10/21 05:10:22;;;;;;;;;;;;;;;;;;5041489;28;19925;-89
2023/10/21 05:13:06;;;;;;;;;;;;;;;;;;5026960;28;19965;-84
2023/10/21 05:15:32;;;;;;;;;;;;;;;;;;5018656;28;19988;-86
2023/10/21 05:18:00;;;;;;;;;;;;;;;;;;5027986;28;19973;-86
2023/10/21 05:20:26;;;;;;;;;;;;;;;;;;5031544;28;19916;-85
2023/10/21 05:23:19;;;;;;;;;;;;;;;;;;5034014;28;20043;-86
2023/10/21 05:25:44;;;;;;;;;;;;;;;;;;5025469;28;19921;-86
2023/10/21 05:28:13;;;;;;;;;;;;;;;;;;5040077;28;19972;-89
2023/10/21 05:30:47;;;;;;;;;;;;;;;;;;5015460;28;20307;-89
2023/10/21 05:36:03;;;;;;;;;;;;;;;;;;5054063;28;19912;-87
2023/10/21 05:38:47;;;;;;;;;;;;;;;;;;5042790;28;19923;-87
2023/10/21 06:04:08;;;;;;;;;;;;;;;;;;4925656;28;19925;-90
2023/10/21 06:06:35;;;;;;;;;;;;;;;;;;4967123;28;20025;-89
2023/10/21 06:09:09;;;;;;;;;;;;;;;;;;5007837;28;19924;-88
2023/10/21 06:15:07;;;;;;;;;;;;;;;;;;5039603;28;19973;-89
2023/10/21 06:23:44;;;;;;;;;;;;;;;;;;5042246;28;20261;-86
2023/10/21 06:26:19;;;;;;;;;;;;;;;;;;4996939;28;19932;-88
2023/10/21 06:28:48;;;;;;;;;;;;;;;;;;4999317;28;19923;-89
2023/10/21 06:31:13;;;;;;;;;;;;;;;;;;5021382;28;19921;-92
2023/10/21 06:33:44;;;;;;;;;;;;;;;;;;5012567;28;19913;-90
2023/10/21 06:36:16;;;;;;;;;;;;;;;;;;4996008;28;19913;-90
2023/10/21 06:39:05;;;;;;;;;;;;;;;;;;5018954;28;20652;-91
2023/10/21 06:41:37;;;;;;;;;;;;;;;;;;5012433;28;20011;-88
2023/10/21 06:44:02;;;;;;;;;;;;;;;;;;5010167;28;19948;-89
2023/10/21 06:46:28;;;;;;;;;;;;;;;;;;5012167;28;20254;-88
2023/10/21 06:48:53;;;;;;;;;;;;;;;;;;5025417;28;19912;-87
2023/10/21 06:51:44;;;;;;;;;;;;;;;;;;;;;
2023/10/21 07:04:15;;;;;;;;;;;;;;;;;;5054546;28;19975;-86
2023/10/21 07:06:50;;;;;;;;;;;;;;;;;;5016755;28;19913;-86
2023/10/21 07:25:33;;;;;;;;;;;;;;;;;;5056179;28;19924;-85
2023/10/21 07:27:59;;;;;;;;;;;;;;;;;;5046843;28;19913;-86
2023/10/21 07:33:41;;;;;;;;;;;;;;;;;;5051747;28;19979;-90
2023/10/21 07:36:27;;;;;;;;;;;;;;;;;;5034198;28;19917;-91
2023/10/21 07:38:54;;;;;;;;;;;;;;;;;;5032218;28;19913;-88
2023/10/21 07:41:19;;;;;;;;;;;;;;;;;;5029680;28;19927;-89
2023/10/21 07:43:54;;;;;;;;;;;;;;;;;;5039396;28;19943;-87
2023/10/21 07:46:22;;;;;;;;;;;;;;;;;;5018759;28;19913;-91
2023/10/21 07:48:56;;;;;;;;;;;;;;;;;;5024607;28;19913;-89
2023/10/21 07:51:35;;;;;;;;;;;;;;;;;;5013524;28;19921;-88
2023/10/21 07:54:00;;;;;;;;;;;;;;;;;;5027229;28;20000;-91
2023/10/21 07:56:26;;;;;;;;;;;;;;;;;;5006176;28;19941;-89
2023/10/21 07:58:51;;;;;;;;;;;;;;;;;;5025931;28;20008;-88
2023/10/21 08:01:20;;;;;;;;;;;;;;;;;;5001746;28;20539;-88
2023/10/21 08:03:47;;;;;;;;;;;;;;;;;;5009156;28;19935;-87
2023/10/21 08:06:15;;;;;;;;;;;;;;;;;;5001029;28;19975;-88
2023/10/21 08:08:40;;;;;;;;;;;;;;;;;;5011229;28;19917;-86
2023/10/21 08:11:06;;;;;;;;;;;;;;;;;;5021860;28;19952;-86
2023/10/21 08:13:34;;;;;;;;;;;;;;;;;;5000310;28;19912;-88
2023/10/21 08:16:00;;;;;;;;;;;;;;;;;;5024982;28;19933;-89
2023/10/21 08:18:25;;;;;;;;;;;;;;;;;;5014593;28;19948;-89
2023/10/21 08:20:51;;;;;;;;;;;;;;;;;;4997024;28;19955;-89
2023/10/21 08:23:16;;;;;;;;;;;;;;;;;;5008872;28;19928;-89
2023/10/21 08:25:42;;;;;;;;;;;;;;;;;;4996486;28;20052;-86
2023/10/21 08:28:11;;;;;;;;;;;;;;;;;;5003837;28;19933;-89
2023/10/21 08:30:36;;;;;;;;;;;;;;;;;;5017206;28;19971;-88
2023/10/21 08:33:02;;;;;;;;;;;;;;;;;;5017354;28;19916;-87
2023/10/21 08:35:27;;;;;;;;;;;;;;;;;;4999477;28;19913;-86
2023/10/21 08:37:53;;;;;;;;;;;;;;;;;;5005640;28;19917;-87
2023/10/21 08:40:18;;;;;;;;;;;;;;;;;;5014805;28;19913;-88
2023/10/21 08:42:43;;;;;;;;;;;;;;;;;;5008974;28;19913;-88
2023/10/21 08:45:09;;;;;;;;;;;;;;;;;;5009040;28;20547;-90
2023/10/21 08:47:36;;;;;;;;;;;;;;;;;;5011625;28;19942;-88
2023/10/21 08:50:03;;;;;;;;;;;;;;;;;;4995453;28;20012;-88
2023/10/21 08:52:29;;;;;;;;;;;;;;;;;;5008215;28;19913;-87
2023/10/21 08:54:54;;;;;;;;;;;;;;;;;;5008434;28;20544;-91
2023/10/21 08:57:21;;;;;;;;;;;;;;;;;;5009203;28;19931;-88
2023/10/21 08:59:46;;;;;;;;;;;;;;;;;;4995094;28;19975;-90
2023/10/21 09:02:12;;;;;;;;;;;;;;;;;;4997895;28;19925;-89
2023/10/21 09:04:37;;;;;;;;;;;;;;;;;;4996203;28;20331;-89
2023/10/21 09:07:07;;;;;;;;;;;;;;;;;;5014876;28;19913;-91
2023/10/21 09:09:34;;;;;;;;;;;;;;;;;;5037758;28;19958;-87
2023/10/21 09:12:00;;;;;;;;;;;;;;;;;;4992703;28;19940;-88
2023/10/21 09:14:25;;;;;;;;;;;;;;;;;;4997035;28;20039;-91
2023/10/21 09:16:50;;;;;;;;;;;;;;;;;;5006043;28;20777;-90
2023/10/21 09:19:16;;;;;;;;;;;;;;;;;;5005095;28;19971;-87
2023/10/21 09:21:41;;;;;;;;;;;;;;;;;;4997649;28;19963;-90
2023/10/21 09:24:06;;;;;;;;;;;;;;;;;;4998012;28;19917;-89
2023/10/21 09:26:33;;;;;;;;;;;;;;;;;;5005638;28;19976;-87
2023/10/21 09:29:02;;;;;;;;;;;;;;;;;;5022895;28;19921;-89
2023/10/21 09:31:27;;;;;;;;;;;;;;;;;;5005691;28;19909;-89
2023/10/21 09:33:52;;;;;;;;;;;;;;;;;;5011163;28;19985;-90
2023/10/21 09:36:18;;;;;;;;;;;;;;;;;;5005710;28;20258;-87
2023/10/21 09:38:43;;;;;;;;;;;;;;;;;;5008801;28;19922;-90
2023/10/21 09:41:16;;;;;;;;;;;;;;;;;;5018712;28;19996;-88
2023/10/21 09:43:41;;;;;;;;;;;;;;;;;;5024341;28;19928;-88
2023/10/21 09:46:07;;;;;;;;;;;;;;;;;;5023658;28;19910;-88
2023/10/21 09:48:32;;;;;;;;;;;;;;;;;;5023442;28;20127;-90
2023/10/21 09:51:01;;;;;;;;;;;;;;;;;;5021677;28;20039;-89
2023/10/21 09:53:28;;;;;;;;;;;;;;;;;;5009698;28;20300;-86
2023/10/21 09:55:58;;;;;;;;;;;;;;;;;;5021073;28;19928;-89
2023/10/21 09:58:26;;;;;;;;;;;;;;;;;;4997048;28;19913;-87
2023/10/21 10:00:57;;;;;;;;;;;;;;;;;;5006918;28;19920;-86
2023/10/21 10:03:26;;;;;;;;;;;;;;;;;;5005228;28;19948;-88
2023/10/21 10:05:51;;;;;;;;;;;;;;;;;;4995831;28;20320;-90
2023/10/21 10:08:20;;;;;;;;;;;;;;;;;;4998335;28;20254;-87
2023/10/21 10:10:48;;;;;;;;;;;;;;;;;;5021308;28;19921;-88
2023/10/21 10:13:14;;;;;;;;;;;;;;;;;;5002622;28;19924;-90
2023/10/21 10:15:40;;;;;;;;;;;;;;;;;;5001806;28;19918;-88
2023/10/21 10:18:08;;;;;;;;;;;;;;;;;;5012251;28;19916;-87
2023/10/21 10:20:33;;;;;;;;;;;;;;;;;;5019713;28;19927;-88
2023/10/21 10:23:02;;;;;;;;;;;;;;;;;;5016460;28;19955;-87
2023/10/21 10:25:33;;;;;;;;;;;;;;;;;;5002147;28;19924;-88
2023/10/21 10:27:59;;;;;;;;;;;;;;;;;;5018566;28;20229;-88
2023/10/21 10:30:25;;;;;;;;;;;;;;;;;;5009715;28;19971;-88
2023/10/21 10:32:50;;;;;;;;;;;;;;;;;;5014711;28;19914;-90
2023/10/21 10:35:22;;;;;;;;;;;;;;;;;;5011626;28;19929;-85
2023/10/21 10:37:47;;;;;;;;;;;;;;;;;;5012434;28;19988;-87
2023/10/21 10:40:19;;;;;;;;;;;;;;;;;;5022866;28;19908;-85
2023/10/21 10:42:44;;;;;;;;;;;;;;;;;;5007031;28;19913;-88
2023/10/21 10:45:10;;;;;;;;;;;;;;;;;;5006861;28;19916;-85
2023/10/21 10:47:35;;;;;;;;;;;;;;;;;;5028600;28;19988;-83
2023/10/21 10:50:00;;;;;;;;;;;;;;;;;;5004713;28;19928;-86
2023/10/21 10:52:26;;;;;;;;;;;;;;;;;;5028598;28;19913;-88
2023/10/21 10:54:51;;;;;;;;;;;;;;;;;;5012909;28;19924;-86
2023/10/21 10:57:17;;;;;;;;;;;;;;;;;;5029275;28;19979;-85
2023/10/21 10:59:42;;;;;;;;;;;;;;;;;;5000627;28;20176;-88
2023/10/21 11:02:13;;;;;;;;;;;;;;;;;;5015167;28;19963;-85
2023/10/21 11:04:39;;;;;;;;;;;;;;;;;;5009231;28;19928;-87
2023/10/21 11:07:04;;;;;;;;;;;;;;;;;;5001369;28;20383;-89
2023/10/21 11:09:30;;;;;;;;;;;;;;;;;;5019025;28;19957;-87
2023/10/21 11:11:57;;;;;;;;;;;;;;;;;;5022239;28;20015;-87
2023/10/21 11:14:24;;;;;;;;;;;;;;;;;;5007761;28;19913;-85
2023/10/21 11:16:50;;;;;;;;;;;;;;;;;;5000925;28;19979;-88
2023/10/21 11:19:15;;;;;;;;;;;;;;;;;;5018728;28;19928;-85
2023/10/21 11:21:58;;;;;;;;;;;;;;;;;;5010630;28;19914;-89
2023/10/21 11:24:26;;;;;;;;;;;;;;;;;;5001987;28;20258;-87
2023/10/21 11:26:54;;;;;;;;;;;;;;;;;;5009913;28;19913;-90
2023/10/21 11:29:22;;;;;;;;;;;;;;;;;;5026273;28;19924;-85
2023/10/21 11:31:47;;;;;;;;;;;;;;;;;;4998233;28;19921;-86
2023/10/21 11:34:13;;;;;;;;;;;;;;;;;;5042653;28;20327;-87
2023/10/21 11:36:38;;;;;;;;;;;;;;;;;;5013539;28;19913;-85
2023/10/21 11:39:13;;;;;;;;;;;;;;;;;;5010368;28;19927;-87
2023/10/21 11:41:38;;;;;;;;;;;;;;;;;;5022877;28;19913;-88
2023/10/21 11:44:04;;;;;;;;;;;;;;;;;;5027124;28;20504;-87
2023/10/21 11:46:32;;;;;;;;;;;;;;;;;;5000557;28;20270;-89
2023/10/21 11:49:00;;;;;;;;;;;;;;;;;;5024062;28;19914;-87
2023/10/21 11:51:29;;;;;;;;;;;;;;;;;;5016098;28;19920;-88
2023/10/21 11:53:54;;;;;;;;;;;;;;;;;;5016731;28;19910;-85
2023/10/21 12:03:19;;;;;;;;;;;;;;;;;;4988121;28;20003;-87
2023/10/21 12:18:35;;;;;;;;;;;;;;;;;;5020894;28;19928;-88
2023/10/21 12:21:40;;;;;;;;;;;;;;;;;;5009086;28;20008;-87
2023/10/21 12:46:22;;;;;;;;;;;;;;;;;;4992187;28;20308;-86
2023/10/21 12:48:51;;;;;;;;;;;;;;;;;;4995810;28;19914;-87
2023/10/21 12:51:18;;;;;;;;;;;;;;;;;;4989305;28;19913;-88
2023/10/21 12:53:43;;;;;;;;;;;;;;;;;;5005630;28;19917;-89
2023/10/21 12:56:09;;;;;;;;;;;;;;;;;;5006201;28;20011;-90
2023/10/21 12:58:34;;;;;;;;;;;;;;;;;;5003426;28;19932;-87
2023/10/21 13:01:00;;;;;;;;;;;;;;;;;;4996277;28;19913;-89
2023/10/21 13:03:28;;;;;;;;;;;;;;;;;;4998525;28;19948;-87
2023/10/21 13:05:56;;;;;;;;;;;;;;;;;;5018965;28;20000;-85
2023/10/21 13:08:31;;;;;;;;;;;;;;;;;;5043704;27;19929;-63
2023/10/21 13:10:59;;;;;;;;;;;;;;;;;;5049228;28;19967;-63
2023/10/21 13:13:28;;;;;;;;;;;;;;;;;;5042357;28;19976;-62
2023/10/21 13:15:53;;;;;;;;;;;;;;;;;;5041852;28;21206;-63
2023/10/21 13:18:18;;;;;;;;;;;;;;;;;;5058510;28;19964;-62
2023/10/21 13:20:46;;;;;;;;;;;;;;;;;;5042152;28;19921;-62
2023/10/21 13:23:14;;;;;;;;;;;;;;;;;;5047248;28;19921;-64
2023/10/21 13:25:40;;;;;;;;;;;;;;;;;;5033628;28;19921;-61
2023/10/21 13:28:05;;;;;;;;;;;;;;;;;;5056436;28;19951;-62
2023/10/21 13:30:33;;;;;;;;;;;;;;;;;;5050396;28;20375;-62
2023/10/21 13:32:58;;;;;;;;;;;;;;;;;;5046429;28;19955;-62
2023/10/21 13:35:24;;;;;;;;;;;;;;;;;;5050015;28;20063;-62
2023/10/21 13:37:49;;;;;;;;;;;;;;;;;;5029787;28;19924;-63
2023/10/21 13:40:14;;;;;;;;;;;;;;;;;;5041107;28;19920;-63
2023/10/21 13:42:44;;;;;;;;;;;;;;;;;;5028963;28;19917;-63
2023/10/21 13:45:20;;;;;;;;;;;;;;;;;;5041673;28;19943;-63
2023/10/21 13:47:48;;;;;;;;;;;;;;;;;;5035971;28;19920;-63
2023/10/21 13:50:18;;;;;;;;;;;;;;;;;;5045565;28;20066;-64
2023/10/21 13:52:45;;;;;;;;;;;;;;;;;;5041076;28;19952;-64
2023/10/21 13:55:14;;;;;;;;;;;;;;;;;;5057293;28;19917;-64
2023/10/21 13:57:43;;;;;;;;;;;;;;;;;;5043644;28;20540;-64
2023/10/21 14:00:25;;;;;;;;;;;;;;;;;;5026021;28;20507;-63
2023/10/21 14:02:51;;;;;;;;;;;;;;;;;;5042692;28;20272;-63
2023/10/21 14:05:16;;;;;;;;;;;;;;;;;;5041413;28;19917;-64
2023/10/21 14:07:47;;;;;;;;;;;;;;;;;;5028899;28;20015;-64
2023/10/21 14:10:14;;;;;;;;;;;;;;;;;;5039522;28;19921;-64
2023/10/21 14:12:40;;;;;;;;;;;;;;;;;;5039829;28;20656;-63
2023/10/21 14:15:17;;;;;;;;;;;;;;;;;;5040579;28;19917;-63
2023/10/21 14:17:45;;;;;;;;;;;;;;;;;;5040131;28;19921;-63
2023/10/21 14:20:11;;;;;;;;;;;;;;;;;;5028057;28;20292;-63
2023/10/21 14:22:42;;;;;;;;;;;;;;;;;;5013415;28;19982;-64
2023/10/21 14:25:10;;;;;;;;;;;;;;;;;;5016853;28;19917;-64
2023/10/21 14:27:37;;;;;;;;;;;;;;;;;;5030889;28;20243;-63
2023/10/21 14:30:08;;;;;;;;;;;;;;;;;;5029072;28;20320;-64
2023/10/21 14:32:33;;;;;;;;;;;;;;;;;;5029812;28;21919;-64
2023/10/21 14:35:01;;;;;;;;;;;;;;;;;;5016289;28;19920;-64
2023/10/21 14:37:29;;;;;;;;;;;;;;;;;;5029966;28;19987;-64
2023/10/21 14:39:54;;;;;;;;;;;;;;;;;;5027033;28;20705;-64
2023/10/21 14:42:19;;;;;;;;;;;;;;;;;;5029232;28;19921;-64
2023/10/21 14:44:45;;;;;;;;;;;;;;;;;;5027166;28;19920;-64
2023/10/21 14:47:11;;;;;;;;;;;;;;;;;;5028579;28;20332;-64
2023/10/21 14:49:36;;;;;;;;;;;;;;;;;;5027872;28;20074;-63
2023/10/21 14:52:04;;;;;;;;;;;;;;;;;;5030000;28;19943;-64
2023/10/21 14:54:32;;;;;;;;;;;;;;;;;;5025449;28;19989;-64
2023/10/21 14:56:57;;;;;;;;;;;;;;;;;;5015721;28;19921;-65
2023/10/21 14:59:25;;;;;;;;;;;;;;;;;;5016914;28;19948;-63
2023/10/21 15:01:50;;;;;;;;;;;;;;;;;;5016772;28;20092;-64
2023/10/21 15:04:16;;;;;;;;;;;;;;;;;;5027469;28;19924;-63
2023/10/21 15:06:44;;;;;;;;;;;;;;;;;;5028960;28;20862;-64
2023/10/21 15:09:09;;;;;;;;;;;;;;;;;;5026427;28;19916;-63
2023/10/21 15:11:37;;;;;;;;;;;;;;;;;;5027923;28;20834;-64
2023/10/21 15:14:05;;;;;;;;;;;;;;;;;;5013523;28;19924;-64
2023/10/21 15:16:31;;;;;;;;;;;;;;;;;;5009501;28;20493;-64
2023/10/21 15:18:59;;;;;;;;;;;;;;;;;;5027303;28;19923;-64
2023/10/21 15:21:27;;;;;;;;;;;;;;;;;;5026204;28;19925;-64
2023/10/21 15:23:53;;;;;;;;;;;;;;;;;;5028331;28;19928;-64
2023/10/21 15:26:21;;;;;;;;;;;;;;;;;;5024364;28;19920;-64
2023/10/21 15:28:51;;;;;;;;;;;;;;;;;;5010554;28;19921;-64
2023/10/21 15:31:19;;;;;;;;;;;;;;;;;;5025017;28;19921;-64
2023/10/21 15:33:50;;;;;;;;;;;;;;;;;;5033654;28;19917;-63
2023/10/21 15:36:15;;;;;;;;;;;;;;;;;;5024722;28;19921;-63
2023/10/21 15:38:45;;;;;;;;;;;;;;;;;;5016875;28;19971;-63
2023/10/21 15:41:13;;;;;;;;;;;;;;;;;;5025924;28;19944;-63
2023/10/21 15:43:41;;;;;;;;;;;;;;;;;;5024329;28;19964;-64
2023/10/21 15:46:12;;;;;;;;;;;;;;;;;;5026523;28;19924;-63
2023/10/21 15:48:37;;;;;;;;;;;;;;;;;;5033665;28;20324;-64
2023/10/21 15:51:05;;;;;;;;;;;;;;;;;;5015517;28;19917;-63
2023/10/21 15:53:30;;;;;;;;;;;;;;;;;;5024303;28;19959;-63
2023/10/21 15:56:01;;;;;;;;;;;;;;;;;;5027049;28;21977;-63
2023/10/21 15:58:27;;;;;;;;;;;;;;;;;;5025843;28;19928;-63
2023/10/21 16:00:52;;;;;;;;;;;;;;;;;;5029475;28;19920;-63
2023/10/21 16:03:20;;;;;;;;;;;;;;;;;;5017892;28;19917;-63
2023/10/21 16:05:46;;;;;;;;;;;;;;;;;;5024063;28;19917;-63
2023/10/21 16:08:12;;;;;;;;;;;;;;;;;;5027822;28;19991;-63
2023/10/21 16:10:40;;;;;;;;;;;;;;;;;;5024923;28;19917;-64
2023/10/21 16:13:07;;;;;;;;;;;;;;;;;;5028406;28;20054;-64
2023/10/21 16:15:35;;;;;;;;;;;;;;;;;;5026485;28;20391;-63
2023/10/21 16:18:19;;;;;;;;;;;;;;;;;;5008907;28;19924;-63
2023/10/21 16:20:46;;;;;;;;;;;;;;;;;;5016471;28;19934;-64
2023/10/21 16:23:15;;;;;;;;;;;;;;;;;;5024931;28;20288;-64
2023/10/21 16:25:42;;;;;;;;;;;;;;;;;;5025906;28;19920;-62
2023/10/21 16:28:11;;;;;;;;;;;;;;;;;;5012684;28;19996;-64
2023/10/21 16:30:40;;;;;;;;;;;;;;;;;;5024666;28;20412;-62
2023/10/21 16:33:08;;;;;;;;;;;;;;;;;;5007980;28;19917;-64
2023/10/21 16:35:33;;;;;;;;;;;;;;;;;;5025415;28;20371;-62
2023/10/21 16:37:59;;;;;;;;;;;;;;;;;;5026049;28;19987;-64
2023/10/21 16:40:25;;;;;;;;;;;;;;;;;;5026536;28;21059;-64
2023/10/21 16:42:50;;;;;;;;;;;;;;;;;;5024149;28;20324;-65
2023/10/21 16:45:16;;;;;;;;;;;;;;;;;;5013526;28;19933;-63
2023/10/21 16:47:41;;;;;;;;;;;;;;;;;;5023324;28;20031;-63
2023/10/21 16:50:13;;;;;;;;;;;;;;;;;;5023880;28;19952;-64
2023/10/21 16:52:42;;;;;;;;;;;;;;;;;;5023631;28;19979;-63
2023/10/21 16:55:08;;;;;;;;;;;;;;;;;;5023444;28;20237;-64
2023/10/21 16:57:33;;;;;;;;;;;;;;;;;;5021441;28;19920;-64
2023/10/21 17:00:02;;;;;;;;;;;;;;;;;;5023287;28;19925;-64
2023/10/21 17:02:30;;;;;;;;;;;;;;;;;;5023671;28;19917;-64
2023/10/21 17:04:59;;;;;;;;;;;;;;;;;;5022528;28;20748;-64
2023/10/21 17:07:29;;;;;;;;;;;;;;;;;;5009928;28;19945;-64
2023/10/21 17:09:55;;;;;;;;;;;;;;;;;;5014369;28;19921;-64
2023/10/21 17:12:22;;;;;;;;;;;;;;;;;;5024369;28;19975;-63
2023/10/21 17:14:51;;;;;;;;;;;;;;;;;;5020686;28;19939;-65
2023/10/21 17:17:16;;;;;;;;;;;;;;;;;;5024451;28;21813;-65
2023/10/21 17:19:44;;;;;;;;;;;;;;;;;;5022695;28;20764;-64
2023/10/21 17:22:12;;;;;;;;;;;;;;;;;;5026220;28;20451;-64
2023/10/21 17:24:39;;;;;;;;;;;;;;;;;;5022878;28;19921;-64
2023/10/21 17:27:07;;;;;;;;;;;;;;;;;;5019586;28;20042;-63
2023/10/21 17:29:38;;;;;;;;;;;;;;;;;;5020211;28;20083;-64
2023/10/21 17:32:06;;;;;;;;;;;;;;;;;;5014543;28;19924;-64
2023/10/21 17:34:32;;;;;;;;;;;;;;;;;;5025126;28;19921;-63
2023/10/21 17:37:00;;;;;;;;;;;;;;;;;;5010537;28;20471;-64
2023/10/21 17:39:26;;;;;;;;;;;;;;;;;;5022737;28;19927;-65
2023/10/21 17:41:53;;;;;;;;;;;;;;;;;;5023526;28;19928;-65
2023/10/21 17:44:21;;;;;;;;;;;;;;;;;;5024005;28;19924;-64
2023/10/21 17:46:49;;;;;;;;;;;;;;;;;;5024167;28;19994;-65
2023/10/21 17:49:17;;;;;;;;;;;;;;;;;;5013431;28;20081;-64
2023/10/21 17:51:45;;;;;;;;;;;;;;;;;;5024559;28;20455;-66
2023/10/21 17:54:15;;;;;;;;;;;;;;;;;;5022392;28;20015;-65
2023/10/21 17:56:42;;;;;;;;;;;;;;;;;;5027196;28;19917;-65
2023/10/21 17:59:08;;;;;;;;;;;;;;;;;;5016866;28;20062;-65
2023/10/21 18:01:33;;;;;;;;;;;;;;;;;;5008253;28;20240;-66
2023/10/21 18:03:58;;;;;;;;;;;;;;;;;;5016124;28;20412;-65
2023/10/21 18:06:24;;;;;;;;;;;;;;;;;;5028919;28;19917;-63
2023/10/21 18:08:49;;;;;;;;;;;;;;;;;;5030601;28;19996;-67
2023/10/21 18:11:17;;;;;;;;;;;;;;;;;;5025658;28;19917;-65
2023/10/21 18:13:45;;;;;;;;;;;;;;;;;;5010855;28;19912;-65
2023/10/21 18:16:11;;;;;;;;;;;;;;;;;;5028537;28;19921;-65
2023/10/21 18:18:39;;;;;;;;;;;;;;;;;;5018253;28;19963;-65
2023/10/21 18:21:15;;;;;;;;;;;;;;;;;;5025108;28;19976;-66
2023/10/21 18:23:41;;;;;;;;;;;;;;;;;;5027312;28;19929;-65
2023/10/21 18:26:06;;;;;;;;;;;;;;;;;;5016350;28;19920;-68
2023/10/21 18:28:33;;;;;;;;;;;;;;;;;;5028688;28;19920;-66
2023/10/21 18:30:59;;;;;;;;;;;;;;;;;;5032246;28;19921;-64
2023/10/21 18:33:24;;;;;;;;;;;;;;;;;;5011424;28;20412;-65
2023/10/21 18:35:52;;;;;;;;;;;;;;;;;;5025774;28;19913;-64
2023/10/21 18:38:20;;;;;;;;;;;;;;;;;;5023510;28;19921;-66
2023/10/21 18:40:45;;;;;;;;;;;;;;;;;;5025667;28;19924;-64
2023/10/21 18:43:16;;;;;;;;;;;;;;;;;;5025492;28;20350;-67